createdAt,value
2022-09-22T00:00:55.434Z,101057.50
2022-09-22T00:04:00.223Z,101075.06
2022-09-22T00:07:01.904Z,101064.34
2022-09-22T00:10:04.305Z,101077.41
2022-09-22T00:13:07.324Z,101069.97
2022-09-22T00:16:11.115Z,101071.66
2022-09-22T00:19:15.878Z,101070.41
2022-09-22T00:22:17.502Z,101070.53
2022-09-22T00:25:19.254Z,101063.41
2022-09-22T00:28:22.295Z,101068.25
2022-09-22T00:31:25.490Z,101070.13
2022-09-22T00:34:27.626Z,101066.38
2022-09-22T00:37:29.248Z,101069.44
2022-09-22T00:40:30.970Z,101070.13
2022-09-22T00:43:37.458Z,101072.19
2022-09-22T00:46:41.579Z,101071.38
2022-09-22T00:49:48.212Z,101079.06
2022-09-22T00:52:53.611Z,101074.56
2022-09-22T00:55:59.838Z,101076.44
2022-09-22T00:59:07.884Z,101065.47
2022-09-22T01:02:10.723Z,101064.75
2022-09-22T01:05:12.750Z,101070.31
2022-09-22T01:08:16.039Z,101054.34
2022-09-22T01:11:20.578Z,101064.22
2022-09-22T01:14:46.556Z,101054.66
2022-09-22T01:18:04.157Z,101050.75
2022-09-22T01:21:33.645Z,101048.19
2022-09-22T01:24:47.364Z,101049.56
2022-09-22T01:28:11.062Z,101047.63
2022-09-22T01:31:22.731Z,101042.22
2022-09-22T01:34:29.233Z,101044.06
2022-09-22T01:37:41.719Z,101049.78
2022-09-22T01:40:50.444Z,101043.41
2022-09-22T01:43:56.544Z,101033.47
2022-09-22T01:47:03.016Z,101041.69
2022-09-22T01:50:10.287Z,101038.03
2022-09-22T01:53:14.762Z,101035.94
2022-09-22T01:56:20.780Z,101034.06
2022-09-22T01:59:26.650Z,101035.75
2022-09-22T02:02:35.040Z,101037.66
2022-09-22T02:05:47.166Z,101031.75
2022-09-22T02:08:54.304Z,101030.25
2022-09-22T02:11:56.198Z,101037.72
2022-09-22T02:14:58.108Z,101031.41
2022-09-22T02:18:06.270Z,101030.84
2022-09-22T02:21:09.282Z,101027.66
2022-09-22T02:24:26.479Z,101032.81
2022-09-22T02:27:36.307Z,101039.84
2022-09-22T02:30:38.246Z,101034.13
2022-09-22T02:33:41.778Z,101037.75
2022-09-22T02:36:53.543Z,101033.28
2022-09-22T02:40:07.195Z,101042.47
2022-09-22T02:43:14.714Z,101046.78
2022-09-22T02:46:23.892Z,101041.81
2022-09-22T02:49:28.105Z,101037.91
2022-09-22T02:52:29.738Z,101041.53
2022-09-22T02:55:31.641Z,101043.78
2022-09-22T02:58:33.432Z,101043.97
2022-09-22T03:01:35.455Z,101046.63
2022-09-22T03:04:38.613Z,101044.53
2022-09-22T03:07:40.503Z,101043.44
2022-09-22T03:10:42.389Z,101039.94
2022-09-22T03:13:43.972Z,101032.03
2022-09-22T03:16:45.618Z,101034.50
2022-09-22T03:19:48.766Z,101030.97
2022-09-22T03:22:50.397Z,101028.91
2022-09-22T03:25:52.015Z,101027.75
2022-09-22T03:28:53.710Z,101036.38
2022-09-22T03:31:55.377Z,101032.59
2022-09-22T03:34:58.412Z,101027.22
2022-09-22T03:38:00.000Z,101023.34
2022-09-22T03:41:02.706Z,101026.22
2022-09-22T03:44:06.105Z,101025.28
2022-09-22T03:47:08.066Z,101031.75
2022-09-22T03:50:11.105Z,101025.81
2022-09-22T03:53:12.776Z,101027.88
2022-09-22T03:56:15.971Z,101025.81
2022-09-22T03:59:18.021Z,101019.88
2022-09-22T04:02:19.762Z,101022.28
2022-09-22T04:05:22.773Z,101022.28
2022-09-22T04:08:24.475Z,101021.91
2022-09-22T04:11:26.122Z,101014.81
2022-09-22T04:14:27.965Z,101011.47
2022-09-22T04:17:29.617Z,101013.72
2022-09-22T04:20:32.824Z,101012.25
2022-09-22T04:23:35.450Z,101017.47
2022-09-22T04:26:37.413Z,101007.94
2022-09-22T04:29:39.020Z,101014.47
2022-09-22T04:32:40.794Z,101008.88
2022-09-22T04:35:43.844Z,101014.69
2022-09-22T04:38:45.524Z,101017.81
2022-09-22T04:41:47.134Z,101013.72
2022-09-22T04:44:48.791Z,101007.41
2022-09-22T04:47:52.762Z,101010.94
2022-09-22T04:50:55.774Z,101016.69
2022-09-22T04:53:58.110Z,101005.91
2022-09-22T04:56:59.841Z,101015.44
2022-09-22T05:00:01.970Z,101009.28
2022-09-22T05:03:08.510Z,101008.53
2022-09-22T05:06:11.714Z,101011.13
2022-09-22T05:09:14.421Z,101010.38
2022-09-22T05:12:16.203Z,101011.72
2022-09-22T05:15:18.114Z,101011.13
2022-09-22T05:18:21.096Z,101018.97
2022-09-22T05:21:24.565Z,101015.63
2022-09-22T05:24:26.252Z,101020.47
2022-09-22T05:27:30.181Z,101022.13
2022-09-22T05:30:31.957Z,101023.06
2022-09-22T05:33:33.676Z,101023.63
2022-09-22T05:36:39.073Z,101028.84
2022-09-22T05:39:40.729Z,101032.97
2022-09-22T05:42:43.898Z,101032.41
2022-09-22T05:45:45.592Z,101037.59
2022-09-22T05:48:47.459Z,101036.31
2022-09-22T05:51:52.174Z,101033.50
2022-09-22T05:54:53.774Z,101036.31
2022-09-22T05:57:57.331Z,101034.66
2022-09-22T06:00:58.987Z,101040.78
2022-09-22T06:04:00.946Z,101047.69
2022-09-22T06:07:06.195Z,101043.59
2022-09-22T06:10:11.498Z,101044.72
2022-09-22T06:13:14.558Z,101043.38
2022-09-22T06:16:16.345Z,101037.25
2022-09-22T06:19:18.097Z,101044.16
2022-09-22T06:22:21.390Z,101040.59
2022-09-22T06:25:25.642Z,101034.25
2022-09-22T06:28:29.687Z,101032.22
2022-09-22T06:31:31.415Z,101040.41
2022-09-22T06:34:33.793Z,101032.22
2022-09-22T06:37:38.482Z,101032.03
2022-09-22T06:40:41.248Z,101033.53
2022-09-22T06:43:44.115Z,101033.72
2022-09-22T06:46:45.786Z,101040.38
2022-09-22T06:49:47.518Z,101036.28
2022-09-22T06:52:51.129Z,101030.16
2022-09-22T06:55:54.059Z,101033.69
2022-09-22T06:59:09.804Z,101034.97
2022-09-22T07:02:12.531Z,101029.00
2022-09-22T07:05:18.546Z,101032.13
2022-09-22T07:08:22.128Z,101038.03
2022-09-22T07:11:23.793Z,101031.72
2022-09-22T07:14:25.542Z,101028.72
2022-09-22T07:17:34.055Z,101033.75
2022-09-22T07:20:35.767Z,101033.88
2022-09-22T07:23:40.775Z,101031.38
2022-09-22T07:26:43.832Z,101027.03
2022-09-22T07:29:47.756Z,101029.00
2022-09-22T07:32:49.351Z,101021.00
2022-09-22T07:36:01.811Z,101026.81
2022-09-22T07:39:11.055Z,101020.81
2022-09-22T07:42:12.969Z,101022.25
2022-09-22T07:45:15.346Z,101023.06
2022-09-22T07:48:35.491Z,101028.09
2022-09-22T07:51:38.479Z,101027.41
2022-09-22T07:54:41.813Z,101028.66
2022-09-22T07:57:43.443Z,101026.16
2022-09-22T08:00:45.203Z,101021.44
2022-09-22T08:03:47.404Z,101021.09
2022-09-22T08:06:52.246Z,101014.13
2022-09-22T08:09:55.238Z,101016.31
2022-09-22T08:12:57.806Z,101026.16
2022-09-22T08:16:00.022Z,101020.16
2022-09-22T08:19:10.696Z,101028.81
2022-09-22T08:22:12.424Z,101013.06
2022-09-22T08:25:15.643Z,101019.59
2022-09-22T08:28:17.373Z,101018.81
2022-09-22T08:31:22.531Z,101022.72
2022-09-22T08:34:24.295Z,101015.75
2022-09-22T08:37:27.294Z,101015.75
2022-09-22T08:40:31.438Z,101020.69
2022-09-22T08:43:34.073Z,101011.72
2022-09-22T08:46:38.966Z,101018.94
2022-09-22T08:50:03.829Z,101010.75
2022-09-22T08:53:11.162Z,101015.34
2022-09-22T08:56:28.672Z,101023.53
2022-09-22T08:59:35.638Z,101016.88
2022-09-22T09:02:41.989Z,101012.59
2022-09-22T09:05:54.400Z,101018.81
2022-09-22T09:09:22.013Z,101014.47
2022-09-22T09:12:36.233Z,101020.75
2022-09-22T09:15:55.925Z,101008.44
2022-09-22T09:19:02.064Z,101007.69
2022-09-22T09:22:08.069Z,101011.63
2022-09-22T09:25:22.406Z,101004.72
2022-09-22T09:28:33.241Z,101002.22
2022-09-22T09:31:41.245Z,101004.47
2022-09-22T09:34:43.809Z,101004.38
2022-09-22T09:37:46.893Z,100999.25
2022-09-22T09:40:56.440Z,100994.44
2022-09-22T09:44:01.217Z,101006.19
2022-09-22T09:47:13.472Z,101003.53
2022-09-22T09:50:16.638Z,101004.13
2022-09-22T09:53:30.526Z,100998.72
2022-09-22T09:56:36.997Z,100999.75
2022-09-22T10:00:00.292Z,100993.84
2022-09-22T10:03:13.148Z,100985.66
2022-09-22T10:06:24.452Z,100993.31
2022-09-22T10:09:28.835Z,100981.00
2022-09-22T10:12:32.582Z,100983.38
2022-09-22T10:15:37.291Z,100986.84
2022-09-22T10:18:40.916Z,100980.63
2022-09-22T10:21:42.617Z,100971.97
2022-09-22T10:24:53.928Z,100971.69
2022-09-22T10:28:00.990Z,100962.13
2022-09-22T10:31:04.051Z,100965.72
2022-09-22T10:34:23.727Z,100961.50
2022-09-22T10:37:28.795Z,100959.09
2022-09-22T10:40:31.548Z,100958.13
2022-09-22T10:43:40.195Z,100960.66
2022-09-22T10:47:06.234Z,100953.78
2022-09-22T10:50:37.855Z,100961.22
2022-09-22T10:53:53.940Z,100949.63
2022-09-22T10:56:58.823Z,100949.72
2022-09-22T11:00:11.513Z,100940.38
2022-09-22T11:03:41.542Z,100945.44
2022-09-22T11:07:12.406Z,100938.25
2022-09-22T11:10:42.100Z,100941.38
2022-09-22T11:13:58.738Z,100930.81
2022-09-22T11:17:10.659Z,100928.06
2022-09-22T11:20:32.300Z,100930.91
2022-09-22T11:23:48.305Z,100922.50
2022-09-22T11:26:53.826Z,100921.66
2022-09-22T11:30:16.734Z,100914.00
2022-09-22T11:33:24.660Z,100910.59
2022-09-22T11:36:42.196Z,100904.81
2022-09-22T11:39:56.044Z,100903.34
2022-09-22T11:43:09.275Z,100904.03
2022-09-22T11:46:23.491Z,100896.47
2022-09-22T11:49:39.454Z,100894.53
2022-09-22T11:52:58.692Z,100894.34
2022-09-22T11:56:18.816Z,100889.72
2022-09-22T11:59:31.466Z,100891.44
2022-09-22T12:02:41.051Z,100875.88
2022-09-22T12:05:47.350Z,100879.31
2022-09-22T12:08:58.114Z,100870.75
2022-09-22T12:12:03.225Z,100868.56
2022-09-22T12:15:14.562Z,100860.75
2022-09-22T12:18:22.102Z,100862.19
2022-09-22T12:21:43.742Z,100851.59
2022-09-22T12:24:47.488Z,100853.63
2022-09-22T12:27:55.186Z,100846.34
2022-09-22T12:31:07.990Z,100848.78
2022-09-22T12:34:18.427Z,100849.00
2022-09-22T12:37:29.624Z,100838.22
2022-09-22T12:40:37.175Z,100846.38
2022-09-22T12:43:38.941Z,100855.28
2022-09-22T12:46:43.034Z,100846.41
2022-09-22T12:49:48.910Z,100841.84
2022-09-22T12:53:03.860Z,100838.63
2022-09-22T12:56:44.864Z,100836.13
2022-09-22T12:59:46.541Z,100831.53
2022-09-22T13:02:49.799Z,100827.53
2022-09-22T13:05:52.925Z,100823.66
2022-09-22T13:09:20.099Z,100817.63
2022-09-22T13:12:28.095Z,100814.13
2022-09-22T13:15:34.102Z,100815.78
2022-09-22T13:18:38.353Z,100811.28
2022-09-22T13:21:41.547Z,100810.34
2022-09-22T13:24:43.275Z,100805.72
2022-09-22T13:27:46.423Z,100810.78
2022-09-22T13:31:02.210Z,100800.69
2022-09-22T13:34:20.737Z,100799.28
2022-09-22T13:37:24.521Z,100802.75
2022-09-22T13:40:29.426Z,100793.41
2022-09-22T13:43:42.145Z,100798.72
2022-09-22T13:46:47.135Z,100799.38
2022-09-22T13:49:51.694Z,100786.31
2022-09-22T13:52:56.299Z,100787.28
2022-09-22T13:55:59.519Z,100778.00
2022-09-22T13:59:03.234Z,100773.38
2022-09-22T14:02:08.108Z,100772.63
2022-09-22T14:05:17.837Z,100766.19
2022-09-22T14:08:23.532Z,100762.84
2022-09-22T14:11:29.961Z,100758.56
2022-09-22T14:14:33.084Z,100756.75
2022-09-22T14:17:36.238Z,100761.34
2022-09-22T14:20:39.389Z,100760.47
2022-09-22T14:23:46.657Z,100756.00
2022-09-22T14:26:50.203Z,100745.13
2022-09-22T14:29:54.573Z,100745.19
2022-09-22T14:32:59.173Z,100751.44
2022-09-22T14:36:02.741Z,100739.00
2022-09-22T14:39:09.938Z,100735.38
2022-09-22T14:42:20.482Z,100740.47
2022-09-22T14:45:27.073Z,100738.56
2022-09-22T14:48:31.074Z,100729.06
2022-09-22T14:51:37.061Z,100729.91
2022-09-22T14:54:39.623Z,100721.03
2022-09-22T14:57:46.054Z,100722.28
2022-09-22T15:01:13.974Z,100725.59
2022-09-22T15:04:18.830Z,100724.72
2022-09-22T15:07:24.628Z,100722.84
2022-09-22T15:10:28.644Z,100718.97
2022-09-22T15:13:39.188Z,100720.16
2022-09-22T15:16:43.445Z,100718.81
2022-09-22T15:19:50.914Z,100715.91
2022-09-22T15:22:54.082Z,100708.91
2022-09-22T15:25:56.250Z,100709.69
2022-09-22T15:28:58.940Z,100713.09
2022-09-22T15:32:06.403Z,100704.66
2022-09-22T15:35:09.094Z,100702.00
2022-09-22T15:38:17.285Z,100693.31
2022-09-22T15:41:18.970Z,100695.69
2022-09-22T15:44:20.796Z,100701.44
2022-09-22T15:47:24.215Z,100697.91
2022-09-22T15:50:28.965Z,100693.44
2022-09-22T15:53:31.593Z,100697.19
2022-09-22T15:56:33.238Z,100689.69
2022-09-22T15:59:36.852Z,100694.59
2022-09-22T16:02:40.799Z,100686.31
2022-09-22T16:05:46.994Z,100688.19
2022-09-22T16:08:51.385Z,100687.38
2022-09-22T16:11:53.768Z,100687.09
2022-09-22T16:14:55.853Z,100678.38
2022-09-22T16:17:58.988Z,100686.34
2022-09-22T16:21:04.728Z,100680.00
2022-09-22T16:24:09.424Z,100676.47
2022-09-22T16:27:12.063Z,100672.16
2022-09-22T16:30:14.104Z,100676.63
2022-09-22T16:33:17.445Z,100673.50
2022-09-22T16:36:19.155Z,100684.00
2022-09-22T16:39:21.148Z,100680.50
2022-09-22T16:42:23.787Z,100678.69
2022-09-22T16:45:44.218Z,100670.13
2022-09-22T16:48:47.264Z,100671.94
2022-09-22T16:51:50.505Z,100673.28
2022-09-22T16:54:52.178Z,100679.81
2022-09-22T16:57:54.651Z,100670.47
2022-09-22T17:01:01.731Z,100681.56
2022-09-22T17:04:06.312Z,100679.59
2022-09-22T17:07:08.015Z,100680.38
2022-09-22T17:10:10.274Z,100679.22
2022-09-22T17:13:11.950Z,100685.41
2022-09-22T17:16:22.234Z,100682.66
2022-09-22T17:19:26.581Z,100685.84
2022-09-22T17:22:29.187Z,100685.81
2022-09-22T17:25:30.968Z,100679.88
2022-09-22T17:28:32.732Z,100676.78
2022-09-22T17:31:36.250Z,100681.72
2022-09-22T17:34:41.087Z,100680.16
2022-09-22T17:37:42.747Z,100675.09
2022-09-22T17:40:44.468Z,100677.88
2022-09-22T17:43:48.320Z,100683.03
2022-09-22T17:47:10.562Z,100683.16
2022-09-22T17:50:32.269Z,100682.94
2022-09-22T17:53:52.798Z,100682.97
2022-09-22T17:56:54.412Z,100677.53
2022-09-22T17:59:57.104Z,100678.03
2022-09-22T18:02:58.959Z,100678.06
2022-09-22T18:06:03.967Z,100680.34
2022-09-22T18:09:05.881Z,100682.03
2022-09-22T18:12:13.469Z,100678.50
2022-09-22T18:15:17.171Z,100683.28
2022-09-22T18:18:18.836Z,100685.91
2022-09-22T18:21:21.851Z,100676.47
2022-09-22T18:24:23.497Z,100678.84
2022-09-22T18:27:27.111Z,100678.41
2022-09-22T18:30:28.967Z,100676.81
2022-09-22T18:33:31.656Z,100678.63
2022-09-22T18:36:35.361Z,100674.78
2022-09-22T18:39:38.899Z,100680.06
2022-09-22T18:42:44.518Z,100685.97
2022-09-22T18:45:46.192Z,100687.88
2022-09-22T18:48:49.839Z,100688.69
2022-09-22T18:51:54.010Z,100693.56
2022-09-22T18:54:55.826Z,100687.47
2022-09-22T18:57:57.461Z,100691.28
2022-09-22T19:00:59.586Z,100684.28
2022-09-22T19:04:02.069Z,100697.28
2022-09-22T19:07:23.635Z,100696.25
2022-09-22T19:10:25.282Z,100703.34
2022-09-22T19:13:27.787Z,100709.44
2022-09-22T19:16:32.269Z,100705.09
2022-09-22T19:19:36.979Z,100699.69
2022-09-22T19:22:40.579Z,100703.75
2022-09-22T19:25:42.253Z,100702.72
2022-09-22T19:28:44.127Z,100700.44
2022-09-22T19:31:45.823Z,100698.22
2022-09-22T19:34:47.519Z,100697.94
2022-09-22T19:37:51.779Z,100692.63
2022-09-22T19:40:56.141Z,100690.94
2022-09-22T19:43:57.972Z,100683.91
2022-09-22T19:46:59.666Z,100683.84
2022-09-22T19:50:01.646Z,100687.25
2022-09-22T19:53:04.846Z,100679.22
2022-09-22T19:56:06.666Z,100690.03
2022-09-22T19:59:08.525Z,100673.91
2022-09-22T20:02:13.205Z,100680.25
2022-09-22T20:05:18.687Z,100680.56
2022-09-22T20:08:22.634Z,100675.09
2022-09-22T20:11:26.728Z,100674.97
2022-09-22T20:14:31.319Z,100671.97
2022-09-22T20:17:33.005Z,100671.72
2022-09-22T20:20:37.390Z,100667.97
2022-09-22T20:23:40.382Z,100668.38
2022-09-22T20:26:43.362Z,100675.38
2022-09-22T20:29:45.014Z,100666.78
2022-09-22T20:32:47.341Z,100667.56
2022-09-22T20:35:50.195Z,100663.72
2022-09-22T20:38:53.228Z,100666.66
2022-09-22T20:41:54.842Z,100667.31
2022-09-22T20:44:56.447Z,100654.91
2022-09-22T20:47:58.162Z,100651.31
2022-09-22T20:51:02.837Z,100656.75
2022-09-22T20:54:07.305Z,100649.19
2022-09-22T20:57:11.125Z,100646.84
2022-09-22T21:00:15.281Z,100645.88
2022-09-22T21:03:16.905Z,100635.59
2022-09-22T21:06:18.725Z,100638.25
2022-09-22T21:09:40.467Z,100635.94
2022-09-22T21:12:42.101Z,100627.81
2022-09-22T21:15:43.806Z,100627.81
2022-09-22T21:18:45.486Z,100621.75
2022-09-22T21:21:47.226Z,100634.31
2022-09-22T21:24:51.279Z,100626.63
2022-09-22T21:27:52.883Z,100621.88
2022-09-22T21:30:55.981Z,100620.19
2022-09-22T21:33:57.692Z,100619.81
2022-09-22T21:36:59.321Z,100617.16
2022-09-22T21:40:02.568Z,100618.09
2022-09-22T21:43:04.326Z,100614.13
2022-09-22T21:46:08.270Z,100605.66
2022-09-22T21:49:10.734Z,100605.22
2022-09-22T21:52:12.405Z,100599.06
2022-09-22T21:55:15.458Z,100597.34
2022-09-22T21:58:17.161Z,100597.22
2022-09-22T22:01:20.951Z,100597.34
2022-09-22T22:04:22.729Z,100587.84
2022-09-22T22:07:24.371Z,100584.31
2022-09-22T22:10:27.496Z,100576.38
2022-09-22T22:13:29.181Z,100576.66
2022-09-22T22:16:33.380Z,100575.47
2022-09-22T22:19:35.121Z,100576.50
2022-09-22T22:22:37.096Z,100578.19
2022-09-22T22:25:40.215Z,100585.50
2022-09-22T22:28:42.845Z,100584.84
2022-09-22T22:31:44.761Z,100578.66
2022-09-22T22:34:46.451Z,100577.84
2022-09-22T22:37:48.115Z,100576.41
2022-09-22T22:40:51.622Z,100574.41
2022-09-22T22:43:53.458Z,100579.16
2022-09-22T22:46:55.175Z,100581.53
2022-09-22T22:49:56.764Z,100583.66
2022-09-22T22:52:58.664Z,100575.72
2022-09-22T22:56:04.664Z,100580.75
2022-09-22T22:59:06.758Z,100579.28
2022-09-22T23:02:08.429Z,100585.38
2022-09-22T23:05:10.116Z,100586.22
2022-09-22T23:08:11.879Z,100595.06
2022-09-22T23:11:19.004Z,100593.34
2022-09-22T23:14:20.651Z,100589.50
2022-09-22T23:17:22.254Z,100584.28
2022-09-22T23:20:25.182Z,100587.13
2022-09-22T23:23:26.913Z,100584.22
2022-09-22T23:26:30.351Z,100582.97
2022-09-22T23:29:31.962Z,100578.69
2022-09-22T23:32:33.738Z,100585.47
2022-09-22T23:35:35.609Z,100584.00
2022-09-22T23:38:37.274Z,100574.84
2022-09-22T23:41:40.270Z,100575.50
2022-09-22T23:44:41.872Z,100573.13
2022-09-22T23:47:43.450Z,100571.59
2022-09-22T23:50:45.658Z,100568.84
2022-09-22T23:53:47.423Z,100567.94
2022-09-22T23:56:50.389Z,100564.38
2022-09-22T23:59:52.018Z,100567.94
